Jacquet River, Canada
Current Conditions -  °F | °C
As of 3:00 PM on Friday 31 Oct 2014 (Local Time) from CZBF Reporting Station
Broken Clouds Broken Clouds  
Wind Chill: 41°   Ceiling: 3000
Heat Index: 46°   Visibility: 15mi
Dew Point: 25°   Wind: 12mph
Humidity: 43%   Direction: 290°WNW
Pressure: 30.04"   Gusts: 21mph
Location:  47.92°N, 66°W
Report Text: CZBF 311800Z 29010G18KT 260V340 15SM BKN030 BKN060 BKN220 08/M04 A3004 RMK SC5SC1CC1 SC TR SLP174
Loading
Personal Weather Stations






























Interactive Weather Map
Tropical Storm Tracking
New forecast layout! Learn more

10-Day Weather Forecast

Advertisements
Track Severe Weather on mobile